sensor_id;sensor_type;location;lat;lon;timestamp;P1;durP1;ratioP1;P2;durP2;ratioP2
17886;SDS011;9069;52.044;7.472;2022-07-05T00:01:13;0.80;;;0.80;;
17886;SDS011;9069;52.044;7.472;2022-07-05T00:03:39;3.53;;;0.88;;
17886;SDS011;9069;52.044;7.472;2022-07-05T00:06:06;2.90;;;1.00;;
17886;SDS011;9069;52.044;7.472;2022-07-05T00:08:33;1.50;;;0.95;;
17886;SDS011;9069;52.044;7.472;2022-07-05T00:11:00;2.03;;;1.17;;
17886;SDS011;9069;52.044;7.472;2022-07-05T00:13:26;1.25;;;0.95;;
17886;SDS011;9069;52.044;7.472;2022-07-05T00:15:53;1.50;;;1.23;;
17886;SDS011;9069;52.044;7.472;2022-07-05T00:18:20;3.22;;;1.20;;
17886;SDS011;9069;52.044;7.472;2022-07-05T00:20:47;1.20;;;0.90;;
17886;SDS011;9069;52.044;7.472;2022-07-05T00:23:13;2.80;;;1.10;;
17886;SDS011;9069;52.044;7.472;2022-07-05T00:25:40;2.30;;;1.00;;
17886;SDS011;9069;52.044;7.472;2022-07-05T00:28:07;4.53;;;1.10;;
17886;SDS011;9069;52.044;7.472;2022-07-05T00:30:33;1.90;;;0.90;;
17886;SDS011;9069;52.044;7.472;2022-07-05T00:33:00;2.17;;;1.02;;
17886;SDS011;9069;52.044;7.472;2022-07-05T00:35:27;2.03;;;1.10;;
17886;SDS011;9069;52.044;7.472;2022-07-05T00:37:54;2.22;;;1.08;;
17886;SDS011;9069;52.044;7.472;2022-07-05T00:40:21;2.08;;;0.98;;
17886;SDS011;9069;52.044;7.472;2022-07-05T00:42:47;1.63;;;0.95;;
17886;SDS011;9069;52.044;7.472;2022-07-05T00:45:14;2.30;;;1.27;;
17886;SDS011;9069;52.044;7.472;2022-07-05T00:47:41;2.67;;;1.02;;
17886;SDS011;9069;52.044;7.472;2022-07-05T00:50:08;0.80;;;0.80;;
17886;SDS011;9069;52.044;7.472;2022-07-05T00:52:35;2.08;;;0.90;;
17886;SDS011;9069;52.044;7.472;2022-07-05T00:55:02;1.75;;;1.13;;
17886;SDS011;9069;52.044;7.472;2022-07-05T00:57:29;1.20;;;0.90;;
17886;SDS011;9069;52.044;7.472;2022-07-05T00:59:58;0.80;;;0.80;;
17886;SDS011;9069;52.044;7.472;2022-07-05T01:02:25;1.42;;;0.77;;
17886;SDS011;9069;52.044;7.472;2022-07-05T01:04:52;0.90;;;0.80;;
17886;SDS011;9069;52.044;7.472;2022-07-05T01:07:20;4.25;;;0.90;;
17886;SDS011;9069;52.044;7.472;2022-07-05T01:09:48;1.55;;;0.80;;
17886;SDS011;9069;52.044;7.472;2022-07-05T01:12:15;3.20;;;0.98;;
17886;SDS011;9069;52.044;7.472;2022-07-05T01:14:43;1.05;;;0.90;;
17886;SDS011;9069;52.044;7.472;2022-07-05T01:17:11;3.85;;;1.20;;
17886;SDS011;9069;52.044;7.472;2022-07-05T01:19:38;2.15;;;0.93;;
17886;SDS011;9069;52.044;7.472;2022-07-05T01:22:06;1.73;;;0.80;;
17886;SDS011;9069;52.044;7.472;2022-07-05T01:24:46;1.75;;;0.88;;
17886;SDS011;9069;52.044;7.472;2022-07-05T01:27:14;2.17;;;0.85;;
17886;SDS011;9069;52.044;7.472;2022-07-05T01:29:41;0.80;;;0.80;;
17886;SDS011;9069;52.044;7.472;2022-07-05T01:32:09;1.35;;;0.93;;
17886;SDS011;9069;52.044;7.472;2022-07-05T01:34:39;2.25;;;0.85;;
17886;SDS011;9069;52.044;7.472;2022-07-05T01:37:08;1.67;;;0.90;;
17886;SDS011;9069;52.044;7.472;2022-07-05T01:39:35;2.05;;;1.05;;
17886;SDS011;9069;52.044;7.472;2022-07-05T01:42:03;1.50;;;0.90;;
17886;SDS011;9069;52.044;7.472;2022-07-05T01:44:30;1.35;;;1.10;;
17886;SDS011;9069;52.044;7.472;2022-07-05T01:46:58;1.73;;;1.00;;
17886;SDS011;9069;52.044;7.472;2022-07-05T01:49:32;4.07;;;1.40;;
17886;SDS011;9069;52.044;7.472;2022-07-05T01:52:04;1.75;;;1.40;;
17886;SDS011;9069;52.044;7.472;2022-07-05T01:54:35;1.30;;;1.05;;
17886;SDS011;9069;52.044;7.472;2022-07-05T01:57:03;4.75;;;1.40;;
17886;SDS011;9069;52.044;7.472;2022-07-05T01:59:34;2.55;;;1.42;;
17886;SDS011;9069;52.044;7.472;2022-07-05T02:02:03;1.70;;;1.60;;
17886;SDS011;9069;52.044;7.472;2022-07-05T02:04:33;4.63;;;1.70;;
17886;SDS011;9069;52.044;7.472;2022-07-05T02:07:04;2.83;;;1.40;;
17886;SDS011;9069;52.044;7.472;2022-07-05T02:09:32;4.32;;;1.67;;
17886;SDS011;9069;52.044;7.472;2022-07-05T02:11:59;1.52;;;1.42;;
17886;SDS011;9069;52.044;7.472;2022-07-05T02:14:27;1.95;;;1.33;;
17886;SDS011;9069;52.044;7.472;2022-07-05T02:16:54;1.58;;;1.25;;
17886;SDS011;9069;52.044;7.472;2022-07-05T02:19:22;2.58;;;1.58;;
17886;SDS011;9069;52.044;7.472;2022-07-05T02:21:50;3.47;;;1.73;;
17886;SDS011;9069;52.044;7.472;2022-07-05T02:24:19;3.80;;;1.60;;
17886;SDS011;9069;52.044;7.472;2022-07-05T02:26:55;3.70;;;1.67;;
17886;SDS011;9069;52.044;7.472;2022-07-05T02:29:22;2.35;;;1.38;;
17886;SDS011;9069;52.044;7.472;2022-07-05T02:31:50;4.35;;;1.50;;
17886;SDS011;9069;52.044;7.472;2022-07-05T02:34:17;3.95;;;1.55;;
17886;SDS011;9069;52.044;7.472;2022-07-05T02:36:44;1.50;;;1.23;;
17886;SDS011;9069;52.044;7.472;2022-07-05T02:39:12;2.50;;;1.70;;
17886;SDS011;9069;52.044;7.472;2022-07-05T02:41:39;4.10;;;1.65;;
17886;SDS011;9069;52.044;7.472;2022-07-05T02:44:06;2.80;;;1.52;;
17886;SDS011;9069;52.044;7.472;2022-07-05T02:46:33;3.03;;;1.48;;
17886;SDS011;9069;52.044;7.472;2022-07-05T02:49:02;2.60;;;1.52;;
17886;SDS011;9069;52.044;7.472;2022-07-05T02:51:32;2.15;;;1.20;;
17886;SDS011;9069;52.044;7.472;2022-07-05T02:54:00;1.85;;;1.25;;
17886;SDS011;9069;52.044;7.472;2022-07-05T02:56:28;2.50;;;1.30;;
17886;SDS011;9069;52.044;7.472;2022-07-05T02:58:56;1.65;;;1.40;;
17886;SDS011;9069;52.044;7.472;2022-07-05T03:01:24;5.50;;;1.58;;
17886;SDS011;9069;52.044;7.472;2022-07-05T03:03:57;3.10;;;1.58;;
17886;SDS011;9069;52.044;7.472;2022-07-05T03:06:27;3.17;;;1.38;;
17886;SDS011;9069;52.044;7.472;2022-07-05T03:08:56;3.55;;;1.60;;
17886;SDS011;9069;52.044;7.472;2022-07-05T03:11:23;2.30;;;1.80;;
17886;SDS011;9069;52.044;7.472;2022-07-05T03:13:51;1.55;;;1.33;;
17886;SDS011;9069;52.044;7.472;2022-07-05T03:16:18;3.33;;;1.85;;
17886;SDS011;9069;52.044;7.472;2022-07-05T03:18:45;3.33;;;1.75;;
17886;SDS011;9069;52.044;7.472;2022-07-05T03:21:12;1.85;;;1.40;;
17886;SDS011;9069;52.044;7.472;2022-07-05T03:23:39;2.97;;;1.73;;
17886;SDS011;9069;52.044;7.472;2022-07-05T03:26:06;1.92;;;1.30;;
17886;SDS011;9069;52.044;7.472;2022-07-05T03:28:33;2.55;;;1.65;;
17886;SDS011;9069;52.044;7.472;2022-07-05T03:31:00;4.53;;;1.50;;
17886;SDS011;9069;52.044;7.472;2022-07-05T03:33:31;4.38;;;1.85;;
17886;SDS011;9069;52.044;7.472;2022-07-05T03:36:02;1.88;;;1.55;;
17886;SDS011;9069;52.044;7.472;2022-07-05T03:38:29;2.70;;;1.95;;
17886;SDS011;9069;52.044;7.472;2022-07-05T03:40:57;2.45;;;1.73;;
17886;SDS011;9069;52.044;7.472;2022-07-05T03:43:26;3.28;;;1.38;;
17886;SDS011;9069;52.044;7.472;2022-07-05T03:45:53;2.15;;;1.05;;
17886;SDS011;9069;52.044;7.472;2022-07-05T03:48:21;4.25;;;1.50;;
17886;SDS011;9069;52.044;7.472;2022-07-05T03:51:06;2.35;;;1.20;;
17886;SDS011;9069;52.044;7.472;2022-07-05T03:53:34;2.95;;;1.40;;
17886;SDS011;9069;52.044;7.472;2022-07-05T03:56:02;4.05;;;1.58;;
17886;SDS011;9069;52.044;7.472;2022-07-05T03:58:29;1.25;;;1.10;;
17886;SDS011;9069;52.044;7.472;2022-07-05T04:00:57;2.58;;;1.35;;
17886;SDS011;9069;52.044;7.472;2022-07-05T04:03:25;3.17;;;1.10;;
17886;SDS011;9069;52.044;7.472;2022-07-05T04:05:53;3.75;;;1.45;;
17886;SDS011;9069;52.044;7.472;2022-07-05T04:08:19;1.92;;;1.42;;
17886;SDS011;9069;52.044;7.472;2022-07-05T04:10:47;3.35;;;1.70;;
17886;SDS011;9069;52.044;7.472;2022-07-05T04:13:17;3.35;;;1.60;;
17886;SDS011;9069;52.044;7.472;2022-07-05T04:15:44;1.60;;;1.50;;
17886;SDS011;9069;52.044;7.472;2022-07-05T04:18:11;2.45;;;1.90;;
17886;SDS011;9069;52.044;7.472;2022-07-05T04:20:40;2.67;;;1.80;;
17886;SDS011;9069;52.044;7.472;2022-07-05T04:23:09;2.15;;;1.50;;
17886;SDS011;9069;52.044;7.472;2022-07-05T04:25:36;2.28;;;1.58;;
17886;SDS011;9069;52.044;7.472;2022-07-05T04:28:18;1.92;;;1.67;;
17886;SDS011;9069;52.044;7.472;2022-07-05T04:30:47;3.22;;;2.10;;
17886;SDS011;9069;52.044;7.472;2022-07-05T04:33:15;3.22;;;1.90;;
17886;SDS011;9069;52.044;7.472;2022-07-05T04:35:45;3.97;;;1.70;;
17886;SDS011;9069;52.044;7.472;2022-07-05T04:38:12;3.10;;;1.90;;
17886;SDS011;9069;52.044;7.472;2022-07-05T04:40:41;3.53;;;2.10;;
17886;SDS011;9069;52.044;7.472;2022-07-05T04:43:08;3.10;;;1.70;;
17886;SDS011;9069;52.044;7.472;2022-07-05T04:45:35;3.00;;;2.17;;
17886;SDS011;9069;52.044;7.472;2022-07-05T04:48:02;3.38;;;2.22;;
17886;SDS011;9069;52.044;7.472;2022-07-05T04:50:31;4.75;;;2.05;;
17886;SDS011;9069;52.044;7.472;2022-07-05T04:52:58;3.65;;;2.50;;
17886;SDS011;9069;52.044;7.472;2022-07-05T04:55:24;5.35;;;2.45;;
17886;SDS011;9069;52.044;7.472;2022-07-05T04:57:51;3.67;;;2.30;;
17886;SDS011;9069;52.044;7.472;2022-07-05T05:00:18;3.60;;;2.80;;
17886;SDS011;9069;52.044;7.472;2022-07-05T05:02:44;8.50;;;2.58;;
17886;SDS011;9069;52.044;7.472;2022-07-05T05:05:11;4.63;;;2.95;;
17886;SDS011;9069;52.044;7.472;2022-07-05T05:07:41;4.68;;;2.85;;
17886;SDS011;9069;52.044;7.472;2022-07-05T05:10:11;13.45;;;3.15;;
17886;SDS011;9069;52.044;7.472;2022-07-05T05:12:38;9.50;;;2.95;;
17886;SDS011;9069;52.044;7.472;2022-07-05T05:15:05;8.73;;;2.95;;
17886;SDS011;9069;52.044;7.472;2022-07-05T05:17:39;5.05;;;2.60;;
17886;SDS011;9069;52.044;7.472;2022-07-05T05:22:38;5.88;;;2.42;;
17886;SDS011;9069;52.044;7.472;2022-07-05T05:25:06;6.70;;;2.65;;
17886;SDS011;9069;52.044;7.472;2022-07-05T05:27:33;2.67;;;2.20;;
17886;SDS011;9069;52.044;7.472;2022-07-05T05:30:01;5.47;;;2.20;;
17886;SDS011;9069;52.044;7.472;2022-07-05T05:32:28;7.38;;;2.33;;
17886;SDS011;9069;52.044;7.472;2022-07-05T05:34:54;4.35;;;2.50;;
17886;SDS011;9069;52.044;7.472;2022-07-05T05:37:21;5.32;;;2.50;;
17886;SDS011;9069;52.044;7.472;2022-07-05T05:39:48;10.98;;;2.97;;
17886;SDS011;9069;52.044;7.472;2022-07-05T05:42:15;7.45;;;3.38;;
17886;SDS011;9069;52.044;7.472;2022-07-05T05:44:42;6.72;;;4.53;;
17886;SDS011;9069;52.044;7.472;2022-07-05T05:47:08;7.93;;;4.50;;
17886;SDS011;9069;52.044;7.472;2022-07-05T05:49:41;6.10;;;4.28;;
17886;SDS011;9069;52.044;7.472;2022-07-05T05:52:09;7.35;;;3.72;;
17886;SDS011;9069;52.044;7.472;2022-07-05T05:54:35;5.20;;;2.97;;
17886;SDS011;9069;52.044;7.472;2022-07-05T05:57:02;3.75;;;3.10;;
17886;SDS011;9069;52.044;7.472;2022-07-05T05:59:29;6.25;;;2.47;;
17886;SDS011;9069;52.044;7.472;2022-07-05T06:01:55;3.95;;;2.33;;
17886;SDS011;9069;52.044;7.472;2022-07-05T06:04:22;3.28;;;2.00;;
17886;SDS011;9069;52.044;7.472;2022-07-05T06:06:49;4.40;;;2.10;;
17886;SDS011;9069;52.044;7.472;2022-07-05T06:09:16;3.75;;;2.30;;
17886;SDS011;9069;52.044;7.472;2022-07-05T06:11:42;2.03;;;1.38;;
17886;SDS011;9069;52.044;7.472;2022-07-05T06:14:09;1.88;;;1.55;;
17886;SDS011;9069;52.044;7.472;2022-07-05T06:16:37;2.63;;;1.75;;
17886;SDS011;9069;52.044;7.472;2022-07-05T06:19:04;2.15;;;1.13;;
17886;SDS011;9069;52.044;7.472;2022-07-05T06:21:31;3.58;;;1.10;;
17886;SDS011;9069;52.044;7.472;2022-07-05T06:23:57;2.25;;;1.00;;
17886;SDS011;9069;52.044;7.472;2022-07-05T06:26:24;4.85;;;1.60;;
17886;SDS011;9069;52.044;7.472;2022-07-05T06:28:51;5.88;;;1.60;;
17886;SDS011;9069;52.044;7.472;2022-07-05T06:31:17;2.13;;;1.20;;
17886;SDS011;9069;52.044;7.472;2022-07-05T06:33:44;2.67;;;0.95;;
17886;SDS011;9069;52.044;7.472;2022-07-05T06:36:11;3.70;;;1.20;;
17886;SDS011;9069;52.044;7.472;2022-07-05T06:38:38;2.25;;;1.42;;
17886;SDS011;9069;52.044;7.472;2022-07-05T06:41:05;4.18;;;1.08;;
17886;SDS011;9069;52.044;7.472;2022-07-05T06:43:31;3.67;;;1.30;;
17886;SDS011;9069;52.044;7.472;2022-07-05T06:46:06;3.75;;;1.15;;
17886;SDS011;9069;52.044;7.472;2022-07-05T06:48:33;2.90;;;1.40;;
17886;SDS011;9069;52.044;7.472;2022-07-05T06:50:59;3.50;;;1.25;;
17886;SDS011;9069;52.044;7.472;2022-07-05T06:53:26;1.60;;;1.20;;
17886;SDS011;9069;52.044;7.472;2022-07-05T06:55:53;1.38;;;1.27;;
17886;SDS011;9069;52.044;7.472;2022-07-05T06:58:22;2.45;;;1.30;;
17886;SDS011;9069;52.044;7.472;2022-07-05T07:00:49;3.40;;;1.20;;
17886;SDS011;9069;52.044;7.472;2022-07-05T07:03:36;1.55;;;1.30;;
17886;SDS011;9069;52.044;7.472;2022-07-05T07:06:22;2.42;;;1.40;;
17886;SDS011;9069;52.044;7.472;2022-07-05T07:08:50;3.05;;;1.30;;
17886;SDS011;9069;52.044;7.472;2022-07-05T07:11:34;2.72;;;1.63;;
17886;SDS011;9069;52.044;7.472;2022-07-05T07:14:01;5.53;;;1.70;;
17886;SDS011;9069;52.044;7.472;2022-07-05T07:16:28;1.58;;;1.23;;
17886;SDS011;9069;52.044;7.472;2022-07-05T07:18:55;2.47;;;1.27;;
17886;SDS011;9069;52.044;7.472;2022-07-05T07:21:40;3.50;;;1.30;;
17886;SDS011;9069;52.044;7.472;2022-07-05T07:24:08;2.50;;;0.98;;
17886;SDS011;9069;52.044;7.472;2022-07-05T07:26:35;3.25;;;1.23;;
17886;SDS011;9069;52.044;7.472;2022-07-05T07:29:20;3.17;;;1.20;;
17886;SDS011;9069;52.044;7.472;2022-07-05T07:31:47;1.83;;;1.35;;
17886;SDS011;9069;52.044;7.472;2022-07-05T07:34:14;1.33;;;1.20;;
17886;SDS011;9069;52.044;7.472;2022-07-05T07:36:41;3.50;;;1.17;;
17886;SDS011;9069;52.044;7.472;2022-07-05T07:39:08;0.90;;;0.80;;
17886;SDS011;9069;52.044;7.472;2022-07-05T07:41:35;3.72;;;0.88;;
17886;SDS011;9069;52.044;7.472;2022-07-05T07:44:01;2.30;;;1.05;;
17886;SDS011;9069;52.044;7.472;2022-07-05T07:46:28;2.08;;;0.90;;
17886;SDS011;9069;52.044;7.472;2022-07-05T07:48:55;2.13;;;1.08;;
17886;SDS011;9069;52.044;7.472;2022-07-05T07:51:22;1.15;;;0.65;;
17886;SDS011;9069;52.044;7.472;2022-07-05T07:53:49;1.35;;;0.60;;
17886;SDS011;9069;52.044;7.472;2022-07-05T07:56:16;1.27;;;0.60;;
17886;SDS011;9069;52.044;7.472;2022-07-05T07:58:43;1.17;;;0.70;;
17886;SDS011;9069;52.044;7.472;2022-07-05T08:01:10;2.50;;;0.60;;
17886;SDS011;9069;52.044;7.472;2022-07-05T08:03:37;1.10;;;0.50;;
17886;SDS011;9069;52.044;7.472;2022-07-05T08:06:05;0.40;;;0.40;;
17886;SDS011;9069;52.044;7.472;2022-07-05T08:08:34;1.35;;;0.63;;
17886;SDS011;9069;52.044;7.472;2022-07-05T08:11:01;1.33;;;0.45;;
17886;SDS011;9069;52.044;7.472;2022-07-05T08:13:28;0.75;;;0.57;;
17886;SDS011;9069;52.044;7.472;2022-07-05T08:15:55;1.85;;;0.63;;
17886;SDS011;9069;52.044;7.472;2022-07-05T08:18:22;4.25;;;0.75;;
17886;SDS011;9069;52.044;7.472;2022-07-05T08:21:08;0.68;;;0.50;;
17886;SDS011;9069;52.044;7.472;2022-07-05T08:23:53;0.63;;;0.40;;
17886;SDS011;9069;52.044;7.472;2022-07-05T08:26:20;1.08;;;0.50;;
17886;SDS011;9069;52.044;7.472;2022-07-05T08:28:47;0.85;;;0.50;;
17886;SDS011;9069;52.044;7.472;2022-07-05T08:31:34;0.82;;;0.50;;
17886;SDS011;9069;52.044;7.472;2022-07-05T08:34:04;1.13;;;0.40;;
17886;SDS011;9069;52.044;7.472;2022-07-05T08:36:30;0.77;;;0.40;;
17886;SDS011;9069;52.044;7.472;2022-07-05T08:38:57;0.32;;;0.32;;
17886;SDS011;9069;52.044;7.472;2022-07-05T08:41:24;1.30;;;0.55;;
17886;SDS011;9069;52.044;7.472;2022-07-05T08:43:51;2.83;;;0.45;;
17886;SDS011;9069;52.044;7.472;2022-07-05T08:46:18;0.63;;;0.55;;
17886;SDS011;9069;52.044;7.472;2022-07-05T08:48:50;1.85;;;0.50;;
17886;SDS011;9069;52.044;7.472;2022-07-05T08:51:19;2.47;;;0.60;;
17886;SDS011;9069;52.044;7.472;2022-07-05T08:53:52;0.82;;;0.40;;
17886;SDS011;9069;52.044;7.472;2022-07-05T08:56:21;1.52;;;0.45;;
17886;SDS011;9069;52.044;7.472;2022-07-05T08:59:08;0.65;;;0.57;;
17886;SDS011;9069;52.044;7.472;2022-07-05T09:01:35;1.80;;;0.65;;
17886;SDS011;9069;52.044;7.472;2022-07-05T09:04:06;1.00;;;0.55;;
17886;SDS011;9069;52.044;7.472;2022-07-05T09:06:35;0.60;;;0.50;;
17886;SDS011;9069;52.044;7.472;2022-07-05T09:09:03;1.55;;;0.60;;
17886;SDS011;9069;52.044;7.472;2022-07-05T09:11:37;1.42;;;0.60;;
17886;SDS011;9069;52.044;7.472;2022-07-05T09:14:06;2.63;;;0.70;;
17886;SDS011;9069;52.044;7.472;2022-07-05T09:16:54;1.98;;;0.50;;
17886;SDS011;9069;52.044;7.472;2022-07-05T09:19:22;0.85;;;0.40;;
17886;SDS011;9069;52.044;7.472;2022-07-05T09:21:51;0.50;;;0.50;;
17886;SDS011;9069;52.044;7.472;2022-07-05T09:24:30;2.80;;;0.95;;
17886;SDS011;9069;52.044;7.472;2022-07-05T09:27:03;2.30;;;0.70;;
17886;SDS011;9069;52.044;7.472;2022-07-05T09:29:31;2.47;;;0.57;;
17886;SDS011;9069;52.044;7.472;2022-07-05T09:32:23;0.85;;;0.35;;
17886;SDS011;9069;52.044;7.472;2022-07-05T09:34:50;1.30;;;0.90;;
17886;SDS011;9069;52.044;7.472;2022-07-05T09:37:17;0.60;;;0.50;;
17886;SDS011;9069;52.044;7.472;2022-07-05T09:39:44;1.52;;;0.60;;
17886;SDS011;9069;52.044;7.472;2022-07-05T09:42:18;0.77;;;0.77;;
17886;SDS011;9069;52.044;7.472;2022-07-05T09:44:50;0.55;;;0.45;;
17886;SDS011;9069;52.044;7.472;2022-07-05T09:47:28;2.70;;;0.70;;
17886;SDS011;9069;52.044;7.472;2022-07-05T09:49:56;0.85;;;0.70;;
17886;SDS011;9069;52.044;7.472;2022-07-05T09:52:39;1.20;;;0.82;;
17886;SDS011;9069;52.044;7.472;2022-07-05T09:55:11;0.60;;;0.60;;
17886;SDS011;9069;52.044;7.472;2022-07-05T09:57:43;0.80;;;0.52;;
17886;SDS011;9069;52.044;7.472;2022-07-05T10:00:12;0.93;;;0.70;;
17886;SDS011;9069;52.044;7.472;2022-07-05T10:02:41;5.07;;;0.70;;
17886;SDS011;9069;52.044;7.472;2022-07-05T10:05:20;2.22;;;0.68;;
17886;SDS011;9069;52.044;7.472;2022-07-05T10:07:53;1.17;;;0.68;;
17886;SDS011;9069;52.044;7.472;2022-07-05T10:12:53;1.33;;;0.60;;
17886;SDS011;9069;52.044;7.472;2022-07-05T10:15:43;1.50;;;0.70;;
17886;SDS011;9069;52.044;7.472;2022-07-05T10:18:13;1.42;;;0.65;;
17886;SDS011;9069;52.044;7.472;2022-07-05T10:20:48;3.20;;;0.57;;
17886;SDS011;9069;52.044;7.472;2022-07-05T10:23:18;2.00;;;0.70;;
17886;SDS011;9069;52.044;7.472;2022-07-05T10:25:45;3.10;;;0.45;;
17886;SDS011;9069;52.044;7.472;2022-07-05T10:28:19;0.68;;;0.50;;
17886;SDS011;9069;52.044;7.472;2022-07-05T10:30:48;0.93;;;0.50;;
17886;SDS011;9069;52.044;7.472;2022-07-05T10:33:18;0.52;;;0.52;;
17886;SDS011;9069;52.044;7.472;2022-07-05T10:35:51;1.92;;;0.80;;
17886;SDS011;9069;52.044;7.472;2022-07-05T10:38:22;2.15;;;0.75;;
17886;SDS011;9069;52.044;7.472;2022-07-05T10:40:51;0.80;;;0.60;;
17886;SDS011;9069;52.044;7.472;2022-07-05T10:43:22;0.75;;;0.43;;
17886;SDS011;9069;52.044;7.472;2022-07-05T10:45:50;1.35;;;0.70;;
17886;SDS011;9069;52.044;7.472;2022-07-05T10:48:21;1.40;;;0.80;;
17886;SDS011;9069;52.044;7.472;2022-07-05T10:53:23;0.70;;;0.70;;
17886;SDS011;9069;52.044;7.472;2022-07-05T10:55:59;0.98;;;0.63;;
17886;SDS011;9069;52.044;7.472;2022-07-05T10:58:41;2.03;;;0.93;;
17886;SDS011;9069;52.044;7.472;2022-07-05T11:03:40;1.90;;;0.65;;
17886;SDS011;9069;52.044;7.472;2022-07-05T11:06:08;1.20;;;0.70;;
17886;SDS011;9069;52.044;7.472;2022-07-05T11:22:39;2.22;;;0.60;;
17886;SDS011;9069;52.044;7.472;2022-07-05T11:25:08;0.55;;;0.50;;
17886;SDS011;9069;52.044;7.472;2022-07-05T11:27:36;0.55;;;0.55;;
17886;SDS011;9069;52.044;7.472;2022-07-05T11:30:43;0.73;;;0.57;;
17886;SDS011;9069;52.044;7.472;2022-07-05T11:33:32;0.60;;;0.60;;
17886;SDS011;9069;52.044;7.472;2022-07-05T11:35:59;3.22;;;0.80;;
17886;SDS011;9069;52.044;7.472;2022-07-05T11:38:27;1.75;;;0.80;;
17886;SDS011;9069;52.044;7.472;2022-07-05T11:41:14;0.80;;;0.63;;
17886;SDS011;9069;52.044;7.472;2022-07-05T11:43:42;1.75;;;0.93;;
17886;SDS011;9069;52.044;7.472;2022-07-05T11:46:09;0.70;;;0.68;;
17886;SDS011;9069;52.044;7.472;2022-07-05T11:48:56;1.00;;;0.80;;
17886;SDS011;9069;52.044;7.472;2022-07-05T11:51:23;1.75;;;0.77;;
17886;SDS011;9069;52.044;7.472;2022-07-05T11:53:50;2.75;;;0.70;;
17886;SDS011;9069;52.044;7.472;2022-07-05T11:56:37;0.90;;;0.50;;
17886;SDS011;9069;52.044;7.472;2022-07-05T11:59:16;0.90;;;0.70;;
17886;SDS011;9069;52.044;7.472;2022-07-05T12:01:47;0.75;;;0.50;;
17886;SDS011;9069;52.044;7.472;2022-07-05T12:04:24;0.70;;;0.50;;
17886;SDS011;9069;52.044;7.472;2022-07-05T12:06:52;0.93;;;0.50;;
17886;SDS011;9069;52.044;7.472;2022-07-05T12:09:25;1.02;;;0.57;;
17886;SDS011;9069;52.044;7.472;2022-07-05T12:11:54;0.55;;;0.50;;
17886;SDS011;9069;52.044;7.472;2022-07-05T12:14:47;1.55;;;0.52;;
17886;SDS011;9069;52.044;7.472;2022-07-05T12:17:19;3.05;;;0.90;;
17886;SDS011;9069;52.044;7.472;2022-07-05T12:19:51;0.90;;;0.60;;
17886;SDS011;9069;52.044;7.472;2022-07-05T12:22:32;2.10;;;0.60;;
17886;SDS011;9069;52.044;7.472;2022-07-05T12:25:02;2.72;;;0.90;;
17886;SDS011;9069;52.044;7.472;2022-07-05T12:27:30;2.47;;;0.60;;
17886;SDS011;9069;52.044;7.472;2022-07-05T12:29:59;2.40;;;0.75;;
17886;SDS011;9069;52.044;7.472;2022-07-05T12:32:28;2.75;;;0.63;;
17886;SDS011;9069;52.044;7.472;2022-07-05T12:34:56;0.47;;;0.47;;
17886;SDS011;9069;52.044;7.472;2022-07-05T12:37:30;1.33;;;0.50;;
17886;SDS011;9069;52.044;7.472;2022-07-05T12:40:02;2.15;;;0.63;;
17886;SDS011;9069;52.044;7.472;2022-07-05T12:42:34;1.70;;;0.80;;
17886;SDS011;9069;52.044;7.472;2022-07-05T12:45:09;1.08;;;0.50;;
17886;SDS011;9069;52.044;7.472;2022-07-05T12:47:49;1.02;;;0.50;;
17886;SDS011;9069;52.044;7.472;2022-07-05T12:50:19;0.88;;;0.55;;
17886;SDS011;9069;52.044;7.472;2022-07-05T12:55:34;4.55;;;0.50;;
17886;SDS011;9069;52.044;7.472;2022-07-05T12:58:20;4.45;;;0.63;;
17886;SDS011;9069;52.044;7.472;2022-07-05T13:00:47;2.38;;;0.73;;
17886;SDS011;9069;52.044;7.472;2022-07-05T13:03:13;0.95;;;0.63;;
17886;SDS011;9069;52.044;7.472;2022-07-05T13:05:41;1.10;;;0.60;;
17886;SDS011;9069;52.044;7.472;2022-07-05T13:08:08;0.80;;;0.55;;
17886;SDS011;9069;52.044;7.472;2022-07-05T13:10:35;0.80;;;0.57;;
17886;SDS011;9069;52.044;7.472;2022-07-05T13:13:12;0.93;;;0.50;;
17886;SDS011;9069;52.044;7.472;2022-07-05T13:15:40;2.22;;;0.82;;
17886;SDS011;9069;52.044;7.472;2022-07-05T13:18:07;2.38;;;0.70;;
17886;SDS011;9069;52.044;7.472;2022-07-05T13:20:34;2.05;;;0.90;;
17886;SDS011;9069;52.044;7.472;2022-07-05T13:23:00;1.05;;;0.63;;
17886;SDS011;9069;52.044;7.472;2022-07-05T13:25:27;0.50;;;0.50;;
17886;SDS011;9069;52.044;7.472;2022-07-05T13:27:54;1.15;;;0.70;;
17886;SDS011;9069;52.044;7.472;2022-07-05T13:30:22;1.45;;;0.77;;
17886;SDS011;9069;52.044;7.472;2022-07-05T13:32:48;2.15;;;0.75;;
17886;SDS011;9069;52.044;7.472;2022-07-05T13:35:15;1.95;;;0.70;;
17886;SDS011;9069;52.044;7.472;2022-07-05T13:37:42;0.90;;;0.70;;
17886;SDS011;9069;52.044;7.472;2022-07-05T13:40:09;0.93;;;0.80;;
17886;SDS011;9069;52.044;7.472;2022-07-05T13:42:36;3.80;;;0.60;;
17886;SDS011;9069;52.044;7.472;2022-07-05T13:45:02;2.42;;;0.60;;
17886;SDS011;9069;52.044;7.472;2022-07-05T13:47:29;1.15;;;0.70;;
17886;SDS011;9069;52.044;7.472;2022-07-05T13:49:56;1.27;;;0.75;;
17886;SDS011;9069;52.044;7.472;2022-07-05T13:52:42;1.08;;;0.95;;
17886;SDS011;9069;52.044;7.472;2022-07-05T13:55:08;0.88;;;0.80;;
17886;SDS011;9069;52.044;7.472;2022-07-05T13:57:35;1.00;;;0.85;;
17886;SDS011;9069;52.044;7.472;2022-07-05T14:00:02;3.30;;;1.00;;
17886;SDS011;9069;52.044;7.472;2022-07-05T14:02:29;3.38;;;1.05;;
17886;SDS011;9069;52.044;7.472;2022-07-05T14:04:56;1.65;;;0.98;;
17886;SDS011;9069;52.044;7.472;2022-07-05T14:07:23;0.70;;;0.70;;
17886;SDS011;9069;52.044;7.472;2022-07-05T14:09:50;1.45;;;1.08;;
17886;SDS011;9069;52.044;7.472;2022-07-05T14:12:17;3.00;;;0.85;;
17886;SDS011;9069;52.044;7.472;2022-07-05T14:14:43;0.70;;;0.70;;
17886;SDS011;9069;52.044;7.472;2022-07-05T14:17:10;1.33;;;0.88;;
17886;SDS011;9069;52.044;7.472;2022-07-05T14:19:37;1.60;;;0.90;;
17886;SDS011;9069;52.044;7.472;2022-07-05T14:22:04;1.52;;;0.80;;
17886;SDS011;9069;52.044;7.472;2022-07-05T14:24:31;1.95;;;1.00;;
17886;SDS011;9069;52.044;7.472;2022-07-05T14:26:57;1.85;;;1.10;;
17886;SDS011;9069;52.044;7.472;2022-07-05T14:29:24;1.90;;;1.00;;
17886;SDS011;9069;52.044;7.472;2022-07-05T14:31:51;1.10;;;0.90;;
17886;SDS011;9069;52.044;7.472;2022-07-05T14:34:17;1.10;;;0.98;;
17886;SDS011;9069;52.044;7.472;2022-07-05T14:36:44;1.83;;;0.90;;
17886;SDS011;9069;52.044;7.472;2022-07-05T14:39:11;2.42;;;1.00;;
17886;SDS011;9069;52.044;7.472;2022-07-05T14:41:44;1.77;;;0.90;;
17886;SDS011;9069;52.044;7.472;2022-07-05T14:44:11;0.90;;;0.90;;
17886;SDS011;9069;52.044;7.472;2022-07-05T14:46:37;1.00;;;0.75;;
17886;SDS011;9069;52.044;7.472;2022-07-05T14:49:04;1.10;;;0.80;;
17886;SDS011;9069;52.044;7.472;2022-07-05T14:51:31;7.53;;;1.13;;
17886;SDS011;9069;52.044;7.472;2022-07-05T14:53:58;0.88;;;0.80;;
17886;SDS011;9069;52.044;7.472;2022-07-05T14:56:25;2.03;;;1.00;;
17886;SDS011;9069;52.044;7.472;2022-07-05T14:58:52;2.35;;;0.95;;
17886;SDS011;9069;52.044;7.472;2022-07-05T15:01:18;0.98;;;0.88;;
17886;SDS011;9069;52.044;7.472;2022-07-05T15:03:45;2.70;;;0.90;;
17886;SDS011;9069;52.044;7.472;2022-07-05T15:06:12;2.75;;;1.23;;
17886;SDS011;9069;52.044;7.472;2022-07-05T15:08:39;1.15;;;0.93;;
17886;SDS011;9069;52.044;7.472;2022-07-05T15:11:06;1.52;;;0.98;;
17886;SDS011;9069;52.044;7.472;2022-07-05T15:13:32;3.72;;;0.90;;
17886;SDS011;9069;52.044;7.472;2022-07-05T15:16:01;1.83;;;1.00;;
17886;SDS011;9069;52.044;7.472;2022-07-05T15:18:27;1.10;;;1.00;;
17886;SDS011;9069;52.044;7.472;2022-07-05T15:20:54;2.10;;;1.30;;
17886;SDS011;9069;52.044;7.472;2022-07-05T15:23:25;1.88;;;1.35;;
17886;SDS011;9069;52.044;7.472;2022-07-05T15:25:55;1.25;;;1.00;;
17886;SDS011;9069;52.044;7.472;2022-07-05T15:28:23;2.22;;;1.02;;
17886;SDS011;9069;52.044;7.472;2022-07-05T15:30:50;1.77;;;0.80;;
17886;SDS011;9069;52.044;7.472;2022-07-05T15:33:19;1.67;;;0.90;;
17886;SDS011;9069;52.044;7.472;2022-07-05T15:35:54;4.32;;;1.30;;
17886;SDS011;9069;52.044;7.472;2022-07-05T15:38:23;3.13;;;1.00;;
17886;SDS011;9069;52.044;7.472;2022-07-05T15:40:51;2.42;;;1.02;;